createdAt,value
2022-12-29T00:00:46.755Z,8.20
2022-12-29T00:03:10.461Z,8.20
2022-12-29T00:05:34.034Z,8.20
2022-12-29T00:07:57.632Z,8.20
2022-12-29T00:10:22.550Z,8.30
2022-12-29T00:13:03.832Z,8.30
2022-12-29T00:15:39.246Z,8.30
2022-12-29T00:18:02.953Z,8.30
2022-12-29T00:20:44.017Z,8.30
2022-12-29T00:23:25.216Z,8.40
2022-12-29T00:26:07.691Z,8.30
2022-12-29T00:28:48.843Z,8.40
2022-12-29T00:31:31.945Z,8.40
2022-12-29T00:34:15.952Z,8.40
2022-12-29T00:36:43.477Z,8.40
2022-12-29T00:39:29.957Z,8.50
2022-12-29T00:42:12.250Z,8.40
2022-12-29T00:44:36.222Z,8.50
2022-12-29T00:47:03.346Z,8.50
2022-12-29T00:49:32.660Z,8.40
2022-12-29T00:51:57.937Z,8.40
2022-12-29T00:54:21.979Z,8.50
2022-12-29T00:56:45.510Z,8.50
2022-12-29T00:59:12.444Z,8.40
2022-12-29T01:01:37.573Z,8.40
2022-12-29T01:04:03.967Z,8.50
2022-12-29T01:06:28.028Z,8.40
2022-12-29T01:09:11.708Z,8.40
2022-12-29T01:11:34.327Z,8.40
2022-12-29T01:13:57.921Z,8.50
2022-12-29T01:16:22.940Z,8.50
2022-12-29T01:18:47.271Z,8.50
2022-12-29T01:21:10.885Z,8.50
2022-12-29T01:23:34.873Z,8.50
2022-12-29T01:25:58.736Z,8.50
2022-12-29T01:28:26.103Z,8.50
2022-12-29T01:30:50.167Z,8.50
2022-12-29T01:33:15.052Z,8.50
2022-12-29T01:35:38.657Z,8.50
2022-12-29T01:38:02.205Z,8.50
2022-12-29T01:40:26.009Z,8.50
2022-12-29T01:42:49.518Z,8.50
2022-12-29T01:45:15.468Z,8.50
2022-12-29T01:47:42.744Z,8.50
2022-12-29T01:50:12.458Z,8.50
2022-12-29T01:52:42.707Z,8.50
2022-12-29T01:55:08.817Z,8.50
2022-12-29T01:57:37.176Z,8.50
2022-12-29T02:00:05.863Z,8.50
2022-12-29T02:02:36.646Z,8.40
2022-12-29T02:05:04.579Z,8.50
2022-12-29T02:07:31.033Z,8.50
2022-12-29T02:09:57.125Z,8.50
2022-12-29T02:12:23.969Z,8.50
2022-12-29T02:14:48.217Z,8.40
2022-12-29T02:17:18.784Z,8.40
2022-12-29T02:20:24.551Z,8.50
2022-12-29T02:23:09.948Z,8.50
2022-12-29T02:26:16.622Z,8.50
2022-12-29T02:29:19.861Z,8.50
2022-12-29T02:31:49.030Z,8.60
2022-12-29T02:34:24.809Z,8.60
2022-12-29T02:37:01.607Z,8.50
2022-12-29T02:39:34.808Z,8.50
2022-12-29T02:42:06.737Z,8.50
2022-12-29T02:44:38.862Z,8.60
2022-12-29T02:47:12.004Z,8.60
2022-12-29T02:49:41.710Z,8.60
2022-12-29T02:52:09.146Z,8.60
2022-12-29T02:54:45.273Z,8.60
2022-12-29T02:57:17.039Z,8.60
2022-12-29T02:59:43.214Z,8.70
2022-12-29T03:02:38.840Z,8.70
2022-12-29T03:05:19.667Z,8.70
2022-12-29T03:07:52.684Z,8.80
2022-12-29T03:10:36.994Z,8.80
2022-12-29T03:13:27.545Z,8.80
2022-12-29T03:16:04.366Z,8.80
2022-12-29T03:18:40.747Z,8.90
2022-12-29T03:21:11.710Z,8.90
2022-12-29T03:23:37.155Z,8.90
2022-12-29T03:26:06.641Z,8.90
2022-12-29T03:28:36.075Z,9.00
2022-12-29T03:31:02.174Z,9.00
2022-12-29T03:33:30.912Z,9.00
2022-12-29T03:36:03.887Z,9.00
2022-12-29T03:38:36.703Z,9.10
2022-12-29T03:41:05.800Z,9.10
2022-12-29T03:43:31.482Z,9.20
2022-12-29T03:45:55.857Z,9.20
2022-12-29T03:48:19.672Z,9.20
2022-12-29T03:50:45.536Z,9.20
2022-12-29T03:53:09.145Z,9.30
2022-12-29T03:55:32.727Z,9.30
2022-12-29T03:57:57.524Z,9.30
2022-12-29T04:00:34.263Z,9.40
2022-12-29T04:02:58.313Z,9.40
2022-12-29T04:05:22.130Z,9.40
2022-12-29T04:07:49.740Z,9.40
2022-12-29T04:10:13.418Z,9.40
2022-12-29T04:12:37.486Z,9.50
2022-12-29T04:15:01.119Z,9.50
2022-12-29T04:17:24.689Z,9.50
2022-12-29T04:19:50.126Z,9.50
2022-12-29T04:22:13.902Z,9.60
2022-12-29T04:24:39.292Z,9.60
2022-12-29T04:27:02.930Z,9.60
2022-12-29T04:29:58.485Z,9.60
2022-12-29T04:32:31.625Z,9.60
2022-12-29T04:34:55.266Z,9.60
2022-12-29T04:37:19.829Z,9.70
2022-12-29T04:39:45.108Z,9.70
2022-12-29T04:42:08.997Z,9.70
2022-12-29T04:44:32.634Z,9.60
2022-12-29T04:47:11.556Z,9.70
2022-12-29T04:49:49.479Z,9.70
2022-12-29T04:52:30.926Z,9.70
2022-12-29T04:54:56.033Z,9.70
2022-12-29T04:57:19.837Z,9.70
2022-12-29T04:59:47.774Z,9.70
2022-12-29T05:02:12.298Z,9.80
2022-12-29T05:04:36.215Z,9.80
2022-12-29T05:06:59.750Z,9.80
2022-12-29T05:09:25.456Z,9.70
2022-12-29T05:11:50.547Z,9.70
2022-12-29T05:14:14.244Z,9.80
2022-12-29T05:16:38.407Z,9.80
2022-12-29T05:19:02.656Z,9.80
2022-12-29T05:21:27.899Z,9.80
2022-12-29T05:23:52.204Z,9.90
2022-12-29T05:26:16.053Z,9.90
2022-12-29T05:28:52.406Z,9.90
2022-12-29T05:31:16.760Z,9.90
2022-12-29T05:33:41.576Z,9.90
2022-12-29T05:36:07.433Z,10.00
2022-12-29T05:38:32.588Z,10.00
2022-12-29T05:40:56.172Z,10.10
2022-12-29T05:43:39.723Z,10.10
2022-12-29T05:46:27.764Z,10.10
2022-12-29T05:49:03.099Z,10.20
2022-12-29T05:51:32.537Z,10.20
2022-12-29T05:53:56.981Z,10.20
2022-12-29T05:56:20.553Z,10.20
2022-12-29T05:58:50.829Z,10.20
2022-12-29T06:01:14.525Z,10.30
2022-12-29T06:03:44.475Z,10.30
2022-12-29T06:06:11.426Z,10.30
2022-12-29T06:08:35.027Z,10.30
2022-12-29T06:10:58.955Z,10.30
2022-12-29T06:13:22.565Z,10.30
2022-12-29T06:15:47.468Z,10.30
2022-12-29T06:18:16.438Z,10.30
2022-12-29T06:20:44.838Z,10.30
2022-12-29T06:23:08.468Z,10.40
2022-12-29T06:25:33.318Z,10.30
2022-12-29T06:27:57.083Z,10.40
2022-12-29T06:30:20.667Z,10.40
2022-12-29T06:32:45.366Z,10.40
2022-12-29T06:35:10.952Z,10.40
2022-12-29T06:37:40.820Z,10.40
2022-12-29T06:40:04.704Z,10.50
2022-12-29T06:42:40.078Z,10.50
2022-12-29T06:45:19.232Z,10.50
2022-12-29T06:47:42.803Z,10.50
2022-12-29T06:50:07.690Z,10.50
2022-12-29T06:52:31.395Z,10.50
2022-12-29T06:54:56.307Z,10.60
2022-12-29T06:57:20.067Z,10.60
2022-12-29T06:59:43.654Z,10.60
2022-12-29T07:02:07.562Z,10.50
2022-12-29T07:04:31.698Z,10.50
2022-12-29T07:06:55.283Z,10.60
2022-12-29T07:09:18.956Z,10.50
2022-12-29T07:11:43.889Z,10.50
2022-12-29T07:14:07.526Z,10.50
2022-12-29T07:16:31.497Z,10.50
2022-12-29T07:18:55.145Z,10.50
2022-12-29T07:21:18.838Z,10.50
2022-12-29T07:23:42.355Z,10.60
2022-12-29T07:26:09.591Z,10.60
2022-12-29T07:28:36.111Z,10.60
2022-12-29T07:30:59.766Z,10.50
2022-12-29T07:33:23.357Z,10.50
2022-12-29T07:35:46.922Z,10.50
2022-12-29T07:38:10.424Z,10.50
2022-12-29T07:40:34.015Z,10.50
2022-12-29T07:42:57.576Z,10.50
2022-12-29T07:45:31.917Z,10.50
2022-12-29T07:48:08.556Z,10.50
2022-12-29T07:50:32.155Z,10.60
2022-12-29T07:52:55.708Z,10.60
2022-12-29T07:55:19.632Z,10.60
2022-12-29T07:57:43.222Z,10.60
2022-12-29T08:00:08.340Z,10.70
2022-12-29T08:02:36.853Z,10.70
2022-12-29T08:05:00.448Z,10.70
2022-12-29T08:07:24.116Z,10.70
2022-12-29T08:09:47.782Z,10.80
2022-12-29T08:12:12.405Z,10.70
2022-12-29T08:14:36.135Z,10.80
2022-12-29T08:16:59.652Z,10.80
2022-12-29T08:19:24.608Z,10.80
2022-12-29T08:21:48.121Z,10.80
2022-12-29T08:24:12.356Z,10.80
2022-12-29T08:26:36.330Z,10.80
2022-12-29T08:28:59.873Z,10.80
2022-12-29T08:31:23.666Z,10.70
2022-12-29T08:33:47.313Z,10.70
2022-12-29T08:36:12.563Z,10.70
2022-12-29T08:38:36.274Z,10.70
2022-12-29T08:41:00.529Z,10.70
2022-12-29T08:43:24.206Z,10.70
2022-12-29T08:45:47.774Z,10.70
2022-12-29T08:48:11.355Z,10.70
2022-12-29T08:50:34.896Z,10.70
2022-12-29T08:53:00.031Z,10.70
2022-12-29T08:55:23.549Z,10.80
2022-12-29T08:57:49.217Z,10.90
2022-12-29T09:00:17.174Z,11.00
2022-12-29T09:02:40.942Z,11.00
2022-12-29T09:05:05.501Z,11.10
2022-12-29T09:07:29.141Z,11.10
2022-12-29T09:09:54.109Z,11.20
2022-12-29T09:12:18.557Z,11.20
2022-12-29T09:14:43.810Z,11.30
2022-12-29T09:17:25.069Z,11.30
2022-12-29T09:19:48.707Z,11.30
2022-12-29T09:22:12.240Z,11.40
2022-12-29T09:24:35.889Z,11.40
2022-12-29T09:27:00.785Z,11.40
2022-12-29T09:29:24.598Z,11.40
2022-12-29T09:31:48.216Z,11.50
2022-12-29T09:34:11.872Z,11.50
2022-12-29T09:36:35.424Z,11.60
2022-12-29T09:38:59.017Z,11.70
2022-12-29T09:41:29.221Z,11.70
2022-12-29T09:44:09.135Z,11.80
2022-12-29T09:46:38.365Z,11.80
2022-12-29T09:49:17.868Z,12.00
2022-12-29T09:51:45.503Z,12.10
2022-12-29T09:54:26.876Z,12.20
2022-12-29T09:56:51.902Z,12.30
2022-12-29T09:59:22.326Z,12.40
2022-12-29T10:01:55.230Z,12.40
2022-12-29T10:04:19.023Z,12.40
2022-12-29T10:07:27.425Z,12.40
2022-12-29T10:09:36.818Z,12.40
2022-12-29T10:12:15.668Z,12.30
2022-12-29T10:15:00.131Z,12.30
2022-12-29T10:17:33.369Z,12.20
2022-12-29T10:20:21.764Z,12.20
2022-12-29T10:23:11.346Z,12.20
2022-12-29T10:25:40.843Z,12.30
2022-12-29T10:28:08.657Z,12.30
2022-12-29T10:30:36.659Z,12.40
2022-12-29T10:33:05.675Z,12.40
2022-12-29T10:35:40.355Z,12.50
2022-12-29T10:38:15.288Z,12.50
2022-12-29T10:40:46.253Z,12.50
2022-12-29T10:43:29.937Z,12.50
2022-12-29T10:45:59.285Z,12.60
2022-12-29T10:48:31.820Z,12.60
2022-12-29T10:51:02.226Z,12.60
2022-12-29T10:53:31.179Z,12.70
2022-12-29T10:55:56.866Z,12.80
2022-12-29T10:58:22.856Z,12.80
2022-12-29T11:00:54.844Z,12.90
2022-12-29T11:03:52.581Z,12.90
2022-12-29T11:06:23.359Z,12.90
2022-12-29T11:08:56.006Z,12.90
2022-12-29T11:11:28.938Z,12.90
2022-12-29T11:13:59.597Z,12.90
2022-12-29T11:16:32.935Z,12.90
2022-12-29T11:18:59.296Z,13.00
2022-12-29T11:21:41.431Z,13.00
2022-12-29T11:24:08.435Z,13.00
2022-12-29T11:26:34.810Z,13.00
2022-12-29T11:29:25.907Z,13.00
2022-12-29T11:31:52.739Z,13.00
2022-12-29T11:34:34.068Z,13.10
2022-12-29T11:37:07.415Z,13.00
2022-12-29T11:39:39.785Z,13.00
2022-12-29T11:42:05.917Z,12.80
2022-12-29T11:44:34.967Z,12.70
2022-12-29T11:46:59.577Z,12.50
2022-12-29T11:49:28.086Z,12.50
2022-12-29T11:51:55.893Z,12.40
2022-12-29T11:54:26.340Z,12.40
2022-12-29T11:56:52.424Z,12.30
2022-12-29T11:59:44.911Z,12.20
2022-12-29T12:02:43.680Z,12.10
2022-12-29T12:05:28.339Z,12.00
2022-12-29T12:08:00.198Z,12.00
2022-12-29T12:10:31.670Z,11.90
2022-12-29T12:13:06.264Z,11.80
2022-12-29T12:15:45.366Z,11.80
2022-12-29T12:18:19.895Z,11.80
2022-12-29T12:20:56.403Z,11.70
2022-12-29T12:23:40.382Z,11.60
2022-12-29T12:26:14.538Z,11.50
2022-12-29T12:28:51.166Z,11.40
2022-12-29T12:31:29.204Z,11.40
2022-12-29T12:34:01.585Z,11.40
2022-12-29T12:36:55.657Z,11.30
2022-12-29T12:39:30.094Z,11.30
2022-12-29T12:42:09.270Z,11.30
2022-12-29T12:44:47.965Z,11.20
2022-12-29T12:47:45.483Z,11.20
2022-12-29T12:50:43.430Z,11.20
2022-12-29T12:53:45.410Z,11.20
2022-12-29T12:56:42.904Z,11.20
2022-12-29T12:59:22.555Z,11.20
2022-12-29T13:02:02.826Z,11.20
2022-12-29T13:05:25.979Z,11.20
2022-12-29T13:08:06.319Z,11.20
2022-12-29T13:10:47.073Z,11.10
2022-12-29T13:14:01.565Z,11.20
2022-12-29T13:16:36.657Z,11.20
2022-12-29T13:19:05.297Z,11.20
2022-12-29T13:21:56.232Z,11.10
2022-12-29T13:24:33.229Z,11.10
2022-12-29T13:27:04.635Z,11.10
2022-12-29T13:29:38.605Z,11.10
2022-12-29T13:32:18.280Z,11.10
2022-12-29T13:34:54.747Z,11.10
2022-12-29T13:37:22.303Z,11.10
2022-12-29T13:39:50.650Z,11.10
2022-12-29T13:42:16.158Z,11.10
2022-12-29T13:44:46.276Z,11.10
2022-12-29T13:47:24.278Z,11.10
2022-12-29T13:49:48.790Z,11.00
2022-12-29T13:52:32.329Z,11.00
2022-12-29T13:55:04.291Z,11.10
2022-12-29T13:57:43.554Z,11.10
2022-12-29T14:00:16.962Z,11.10
2022-12-29T14:03:06.809Z,11.10
2022-12-29T14:05:33.626Z,11.10
2022-12-29T14:08:01.790Z,11.10
2022-12-29T14:10:34.375Z,11.10
2022-12-29T14:13:07.777Z,11.10
2022-12-29T14:15:31.668Z,11.10
2022-12-29T14:18:16.887Z,11.10
2022-12-29T14:20:41.876Z,11.10
2022-12-29T14:23:26.902Z,11.00
2022-12-29T14:26:16.741Z,11.00
2022-12-29T14:28:43.647Z,11.00
2022-12-29T14:31:42.106Z,10.90
2022-12-29T14:34:33.321Z,10.90
2022-12-29T14:36:59.428Z,10.80
2022-12-29T14:39:40.096Z,10.90
2022-12-29T14:42:07.086Z,10.80
2022-12-29T14:44:32.357Z,10.80
2022-12-29T14:47:02.681Z,10.80
2022-12-29T14:49:29.792Z,10.80
2022-12-29T14:51:55.709Z,10.80
2022-12-29T14:54:54.403Z,10.80
2022-12-29T14:57:38.246Z,10.80
2022-12-29T15:00:20.562Z,10.90
2022-12-29T15:02:49.710Z,10.80
2022-12-29T15:05:33.029Z,10.80
2022-12-29T15:07:58.786Z,10.80
2022-12-29T15:10:23.951Z,10.80
2022-12-29T15:12:55.723Z,10.70
2022-12-29T15:15:25.484Z,10.30
2022-12-29T15:17:49.207Z,10.20
2022-12-29T15:20:24.198Z,10.10
2022-12-29T15:22:50.541Z,10.10
2022-12-29T15:25:18.559Z,10.00
2022-12-29T15:27:44.753Z,10.00
2022-12-29T15:30:18.390Z,9.90
2022-12-29T15:32:46.909Z,9.90
2022-12-29T15:35:35.315Z,9.80
2022-12-29T15:38:00.052Z,9.80
2022-12-29T15:40:30.175Z,9.80
2022-12-29T15:43:22.462Z,9.80
2022-12-29T15:45:46.237Z,9.70
2022-12-29T15:48:19.706Z,9.70
2022-12-29T15:50:45.079Z,9.70
2022-12-29T15:53:13.513Z,9.60
2022-12-29T15:55:40.280Z,9.60
2022-12-29T15:58:06.833Z,9.60
2022-12-29T16:00:34.337Z,9.50
2022-12-29T16:03:01.690Z,9.60
2022-12-29T16:05:34.717Z,9.60
2022-12-29T16:08:00.279Z,9.60
2022-12-29T16:10:34.566Z,9.60
2022-12-29T16:13:08.475Z,9.60
2022-12-29T16:15:32.254Z,9.60
2022-12-29T16:17:57.640Z,9.60
2022-12-29T16:20:25.289Z,9.60
2022-12-29T16:22:54.107Z,9.70
2022-12-29T16:25:25.381Z,9.70
2022-12-29T16:27:49.048Z,9.70
2022-12-29T16:30:26.494Z,9.60
2022-12-29T16:32:57.158Z,9.60
2022-12-29T16:35:23.596Z,9.60
2022-12-29T16:37:47.866Z,9.60
2022-12-29T16:40:32.922Z,9.50
2022-12-29T16:43:02.203Z,9.50
2022-12-29T16:46:21.068Z,9.50
2022-12-29T16:48:51.296Z,9.50
2022-12-29T16:51:18.639Z,9.40
2022-12-29T16:53:44.690Z,9.40
2022-12-29T16:56:16.840Z,9.40
2022-12-29T16:58:42.699Z,9.40
2022-12-29T17:01:15.708Z,9.40
2022-12-29T17:03:44.339Z,9.40
2022-12-29T17:06:14.647Z,9.40
2022-12-29T17:08:43.887Z,9.40
2022-12-29T17:11:27.481Z,9.40
2022-12-29T17:13:51.146Z,9.40
2022-12-29T17:16:14.719Z,9.50
2022-12-29T17:18:38.796Z,9.50
2022-12-29T17:21:02.551Z,9.50
2022-12-29T17:23:26.908Z,9.50
2022-12-29T17:25:50.483Z,9.60
2022-12-29T17:28:22.352Z,9.60
2022-12-29T17:30:46.011Z,9.70
2022-12-29T17:33:14.922Z,9.70
2022-12-29T17:35:38.811Z,9.70
2022-12-29T17:38:02.309Z,9.70
2022-12-29T17:40:29.744Z,9.70
2022-12-29T17:42:57.620Z,9.80
2022-12-29T17:45:26.223Z,9.80
2022-12-29T17:47:50.113Z,9.90
2022-12-29T17:50:16.619Z,10.00
2022-12-29T17:52:40.171Z,9.90
2022-12-29T17:55:03.831Z,10.00
2022-12-29T17:57:27.358Z,10.00
2022-12-29T17:59:51.282Z,10.00
2022-12-29T18:02:29.505Z,10.00
2022-12-29T18:04:53.488Z,10.00
2022-12-29T18:07:16.999Z,10.00
2022-12-29T18:09:40.617Z,10.00
2022-12-29T18:12:05.803Z,10.00
2022-12-29T18:14:29.562Z,10.00
2022-12-29T18:16:53.070Z,10.00
2022-12-29T18:19:18.025Z,10.00
2022-12-29T18:21:43.024Z,10.10
2022-12-29T18:24:07.607Z,10.10
2022-12-29T18:26:35.542Z,10.10
2022-12-29T18:28:59.968Z,10.10
2022-12-29T18:31:26.534Z,10.10
2022-12-29T18:33:52.069Z,10.00
2022-12-29T18:36:18.294Z,10.00
2022-12-29T18:38:42.273Z,9.90
2022-12-29T18:41:06.011Z,10.00
2022-12-29T18:43:29.607Z,9.90
2022-12-29T18:45:53.256Z,9.90
2022-12-29T18:48:18.991Z,9.90
2022-12-29T18:50:42.550Z,9.90
2022-12-29T18:53:07.561Z,9.90
2022-12-29T18:55:31.801Z,9.90
2022-12-29T18:57:55.430Z,9.80
2022-12-29T19:00:21.267Z,9.90
2022-12-29T19:02:45.436Z,9.90
2022-12-29T19:05:22.737Z,9.90
2022-12-29T19:07:46.329Z,10.00
2022-12-29T19:10:11.430Z,10.00
2022-12-29T19:12:36.281Z,10.00
2022-12-29T19:15:02.193Z,10.00
2022-12-29T19:17:25.785Z,10.00
2022-12-29T19:19:49.348Z,10.00
2022-12-29T19:22:12.920Z,10.00
2022-12-29T19:24:36.452Z,10.00
2022-12-29T19:27:01.452Z,10.00
2022-12-29T19:29:24.990Z,10.00
2022-12-29T19:31:48.605Z,10.00
2022-12-29T19:34:14.979Z,9.90
2022-12-29T19:36:38.592Z,9.90
2022-12-29T19:39:02.149Z,9.90
2022-12-29T19:41:26.083Z,9.90
2022-12-29T19:43:51.019Z,9.90
2022-12-29T19:46:19.281Z,9.80
2022-12-29T19:48:42.909Z,9.80
2022-12-29T19:51:08.698Z,9.80
2022-12-29T19:53:32.217Z,9.80
2022-12-29T19:55:55.829Z,9.90
2022-12-29T19:58:19.329Z,9.90
2022-12-29T20:00:45.117Z,9.80
2022-12-29T20:03:09.104Z,9.90
2022-12-29T20:05:33.059Z,9.80
2022-12-29T20:07:56.600Z,9.80
2022-12-29T20:10:20.401Z,9.70
2022-12-29T20:12:43.986Z,9.70
2022-12-29T20:15:10.027Z,9.70
2022-12-29T20:18:10.839Z,9.70
2022-12-29T20:20:19.134Z,9.70
2022-12-29T20:22:42.748Z,9.70
2022-12-29T20:25:43.090Z,9.70
2022-12-29T20:27:50.971Z,9.70
2022-12-29T20:30:15.522Z,9.70
2022-12-29T20:32:40.514Z,9.70
2022-12-29T20:35:04.277Z,9.60
2022-12-29T20:37:27.988Z,9.60
2022-12-29T20:39:51.612Z,9.60
2022-12-29T20:42:15.204Z,9.50
2022-12-29T20:44:39.287Z,9.50
2022-12-29T20:47:04.853Z,9.50
2022-12-29T20:49:30.084Z,9.50
2022-12-29T20:52:09.370Z,9.50
2022-12-29T20:54:38.620Z,9.50
2022-12-29T20:57:03.503Z,9.50
2022-12-29T20:59:28.336Z,9.50
2022-12-29T21:01:52.708Z,9.50
2022-12-29T21:04:16.619Z,9.50
2022-12-29T21:06:41.609Z,9.50
2022-12-29T21:09:06.529Z,9.50
2022-12-29T21:11:30.194Z,9.50
2022-12-29T21:13:53.767Z,9.50
2022-12-29T21:16:19.015Z,9.60
2022-12-29T21:18:42.991Z,9.60
2022-12-29T21:21:09.742Z,9.60
2022-12-29T21:23:35.228Z,9.60
2022-12-29T21:26:00.317Z,9.60
2022-12-29T21:28:25.373Z,9.70
2022-12-29T21:30:50.091Z,9.70
2022-12-29T21:33:13.800Z,9.70
2022-12-29T21:35:38.498Z,9.70
2022-12-29T21:38:02.114Z,9.70
2022-12-29T21:40:27.100Z,9.70
2022-12-29T21:42:50.797Z,9.70
2022-12-29T21:45:25.079Z,9.70
2022-12-29T21:48:06.390Z,9.70
2022-12-29T21:50:30.022Z,9.70
2022-12-29T21:52:53.564Z,9.60
2022-12-29T21:55:17.343Z,9.60
2022-12-29T21:57:59.775Z,9.60
2022-12-29T22:00:40.784Z,9.50
2022-12-29T22:03:23.870Z,9.50
2022-12-29T22:06:04.890Z,9.50
2022-12-29T22:08:46.026Z,9.40
2022-12-29T22:11:27.693Z,9.40
2022-12-29T22:13:55.932Z,9.30
2022-12-29T22:16:19.477Z,9.30
2022-12-29T22:18:43.120Z,9.30
2022-12-29T22:21:07.821Z,9.20
2022-12-29T22:23:31.409Z,9.30
2022-12-29T22:25:54.982Z,9.30
2022-12-29T22:28:19.159Z,9.30
2022-12-29T22:30:44.239Z,9.30
2022-12-29T22:33:08.231Z,9.30
2022-12-29T22:35:31.719Z,9.30
2022-12-29T22:37:55.475Z,9.40
2022-12-29T22:40:19.215Z,9.40
2022-12-29T22:42:42.993Z,9.40
2022-12-29T22:45:07.734Z,9.40
2022-12-29T22:47:32.740Z,9.40
2022-12-29T22:49:56.271Z,9.40
2022-12-29T22:52:19.863Z,9.50
2022-12-29T22:54:43.407Z,9.50
2022-12-29T22:57:06.985Z,9.40
2022-12-29T22:59:30.475Z,9.40
2022-12-29T23:01:54.172Z,9.40
2022-12-29T23:05:01.693Z,9.40
2022-12-29T23:07:03.084Z,9.40
2022-12-29T23:09:27.568Z,9.40
2022-12-29T23:11:53.350Z,9.40
2022-12-29T23:14:17.844Z,9.40
2022-12-29T23:16:41.555Z,9.40
2022-12-29T23:19:05.994Z,9.50
2022-12-29T23:21:31.257Z,9.40
2022-12-29T23:23:55.869Z,9.40
2022-12-29T23:26:20.683Z,9.40
2022-12-29T23:28:44.237Z,9.40
2022-12-29T23:31:07.941Z,9.40
2022-12-29T23:33:31.736Z,9.40
2022-12-29T23:35:55.306Z,9.40
2022-12-29T23:38:20.762Z,9.40
2022-12-29T23:40:44.561Z,9.40
2022-12-29T23:43:08.111Z,9.40
2022-12-29T23:45:32.280Z,9.30
2022-12-29T23:47:55.864Z,9.30
2022-12-29T23:50:19.448Z,9.30
2022-12-29T23:52:43.004Z,9.20
2022-12-29T23:55:10.907Z,9.20
2022-12-29T23:57:34.431Z,9.20
2022-12-29T23:59:58.180Z,9.10
